Time;durP1;ratioP1;P1;durP2;ratioP2;P2;SDS_P1;SDS_P2;PMS_P1;PMS_P2;Temp;Humidity;BMP_temperature;BMP_pressure;BME280_temperature;BME280_humidity;BME280_pressure;Samples;Min_cycle;Max_cycle;Signal;HPM_P1;HPM_P2
2023/07/05 00:00:24;;;;;;;6.77;6.37;;;14.90;99.90;;;;;;5092073;28;20183;-59
2023/07/05 00:02:51;;;;;;;5.50;4.53;;;14.90;99.90;;;;;;5092712;28;20244;-56
2023/07/05 00:05:17;;;;;;;5.13;4.73;;;14.90;99.90;;;;;;5094956;28;20165;-59
2023/07/05 00:07:42;;;;;;;4.47;4.07;;;14.80;99.90;;;;;;5095621;28;20172;-56
2023/07/05 00:10:08;;;;;;;6.73;4.13;;;14.80;99.90;;;;;;5096467;28;20184;-56
2023/07/05 00:12:34;;;;;;;5.90;4.20;;;14.80;99.90;;;;;;5097609;28;20168;-59
2023/07/05 00:15:00;;;;;;;4.23;3.87;;;14.80;99.90;;;;;;5097920;28;20172;-59
2023/07/05 00:17:26;;;;;;;4.27;4.03;;;14.80;99.90;;;;;;5097604;28;20583;-56
2023/07/05 00:19:52;;;;;;;5.87;4.87;;;14.80;99.90;;;;;;5097508;28;20172;-57
2023/07/05 00:22:18;;;;;;;4.67;4.33;;;14.80;99.90;;;;;;5098128;28;20164;-59
2023/07/05 00:24:44;;;;;;;4.80;4.27;;;14.80;99.90;;;;;;5097411;28;20172;-59
2023/07/05 00:27:09;;;;;;;5.13;4.63;;;14.80;99.90;;;;;;5098976;28;20199;-59
2023/07/05 00:29:35;;;;;;;4.70;4.13;;;14.80;99.90;;;;;;5097169;28;20288;-57
2023/07/05 00:32:01;;;;;;;4.90;4.50;;;14.80;99.90;;;;;;5096584;28;20323;-57
2023/07/05 00:34:26;;;;;;;4.43;4.03;;;14.80;99.90;;;;;;5097464;28;20282;-59
2023/07/05 00:36:52;;;;;;;4.30;4.00;;;14.80;99.90;;;;;;5096383;28;20207;-60
2023/07/05 00:39:17;;;;;;;5.40;4.73;;;14.80;99.90;;;;;;5097838;28;20229;-58
2023/07/05 00:41:43;;;;;;;4.40;3.90;;;14.80;99.90;;;;;;5097168;28;20515;-58
2023/07/05 00:44:11;;;;;;;9.43;4.90;;;14.80;99.90;;;;;;5097741;28;20164;-57
2023/07/05 00:46:38;;;;;;;7.87;5.67;;;14.80;99.90;;;;;;5094933;28;20646;-59
2023/07/05 00:49:11;;;;;;;6.57;5.63;;;14.80;99.90;;;;;;5095939;28;20271;-59
2023/07/05 00:51:52;;;;;;;5.50;4.90;;;14.80;99.90;;;;;;5097396;28;20257;-59
2023/07/05 00:54:23;;;;;;;9.33;5.17;;;14.80;99.90;;;;;;5095909;28;20224;-56
2023/07/05 00:56:53;;;;;;;6.30;4.80;;;14.80;99.90;;;;;;5098401;28;20501;-59
2023/07/05 00:59:21;;;;;;;8.67;5.53;;;14.70;99.90;;;;;;5097577;28;20168;-59
2023/07/05 01:01:46;;;;;;;6.30;4.87;;;14.70;99.90;;;;;;5098168;28;20168;-57
2023/07/05 01:04:12;;;;;;;6.33;5.57;;;14.70;99.90;;;;;;5097263;28;20168;-59
2023/07/05 01:06:39;;;;;;;6.83;5.80;;;14.70;99.90;;;;;;5097087;28;20168;-59
2023/07/05 01:09:06;;;;;;;7.33;6.27;;;14.70;99.90;;;;;;5096901;28;20220;-58
2023/07/05 01:11:51;;;;;;;6.83;6.23;;;14.70;99.90;;;;;;5094814;28;20172;-55
2023/07/05 01:14:32;;;;;;;7.87;7.17;;;14.80;99.90;;;;;;5095221;28;20176;-57
2023/07/05 01:17:07;;;;;;;7.27;6.70;;;14.80;99.90;;;;;;5095027;28;20583;-54
2023/07/05 01:19:57;;;;;;;7.30;6.53;;;14.80;99.90;;;;;;5095684;28;20172;-57
2023/07/05 01:22:53;;;;;;;6.53;4.93;;;14.80;99.90;;;;;;5095874;28;20165;-56
2023/07/05 01:25:42;;;;;;;5.20;4.70;;;14.80;99.90;;;;;;5096268;28;20251;-59
2023/07/05 01:28:48;;;;;;;8.50;5.37;;;14.80;99.90;;;;;;5096373;28;20199;-59
2023/07/05 01:31:36;;;;;;;10.00;5.53;;;14.80;99.90;;;;;;5095932;28;20285;-58
2023/07/05 01:34:27;;;;;;;5.80;5.00;;;14.80;99.90;;;;;;5096860;28;20522;-59
2023/07/05 01:36:53;;;;;;;6.43;5.73;;;14.70;99.90;;;;;;5095669;28;20636;-59
2023/07/05 01:39:19;;;;;;;6.27;5.77;;;14.80;99.90;;;;;;5095767;28;20168;-59
2023/07/05 01:41:44;;;;;;;7.80;5.87;;;14.80;99.90;;;;;;5094829;28;20505;-55
2023/07/05 01:44:13;;;;;;;8.90;6.07;;;14.80;99.90;;;;;;5095712;28;20247;-55
2023/07/05 01:47:05;;;;;;;7.73;7.03;;;14.70;99.90;;;;;;5095611;28;20215;-58
2023/07/05 01:50:03;;;;;;;12.43;7.33;;;14.80;99.90;;;;;;5094865;28;20182;-57
2023/07/05 01:52:51;;;;;;;12.80;7.17;;;14.80;99.90;;;;;;5094408;28;20450;-59
2023/07/05 01:55:32;;;;;;;9.10;6.87;;;14.80;99.90;;;;;;5095116;28;20168;-57
2023/07/05 01:58:07;;;;;;;7.03;6.37;;;14.80;99.90;;;;;;5096085;28;20605;-59
2023/07/05 02:00:36;;;;;;;6.67;6.03;;;14.80;99.90;;;;;;5095465;28;20186;-58
2023/07/05 02:03:05;;;;;;;8.10;6.37;;;14.80;99.90;;;;;;5096135;28;20226;-58
2023/07/05 02:05:31;;;;;;;7.50;5.70;;;14.80;99.90;;;;;;5096161;28;20260;-56
2023/07/05 02:07:59;;;;;;;6.83;5.93;;;14.80;99.90;;;;;;5096062;28;20179;-54
2023/07/05 02:10:25;;;;;;;6.83;6.07;;;14.80;99.90;;;;;;5095181;28;20520;-58
2023/07/05 02:12:52;;;;;;;9.33;6.60;;;14.80;99.90;;;;;;5094713;28;20169;-57
2023/07/05 02:15:19;;;;;;;8.83;6.67;;;14.80;99.90;;;;;;5094916;28;20172;-58
2023/07/05 02:17:44;;;;;;;9.50;6.57;;;14.80;99.90;;;;;;5094972;28;20211;-56
2023/07/05 02:20:10;;;;;;;9.30;6.13;;;14.80;99.90;;;;;;5095373;28;20159;-57
2023/07/05 02:22:36;;;;;;;11.17;7.37;;;14.80;99.90;;;;;;5094739;28;20448;-58
2023/07/05 02:25:01;;;;;;;9.03;7.10;;;14.80;99.90;;;;;;5094399;28;20227;-57
2023/07/05 02:27:28;;;;;;;9.80;8.10;;;14.80;99.90;;;;;;5097069;28;20164;-57
2023/07/05 02:29:55;;;;;;;10.10;7.50;;;14.80;99.90;;;;;;5096501;28;20659;-58
2023/07/05 02:32:21;;;;;;;9.03;8.27;;;14.80;99.90;;;;;;5096381;28;20558;-58
2023/07/05 02:34:46;;;;;;;8.23;7.57;;;14.80;99.90;;;;;;5096438;28;20543;-56
2023/07/05 02:37:13;;;;;;;9.23;8.30;;;14.80;99.90;;;;;;5097211;28;20210;-56
2023/07/05 02:39:39;;;;;;;9.60;8.67;;;14.70;99.90;;;;;;5096883;28;20171;-56
2023/07/05 02:42:05;;;;;;;8.53;7.67;;;14.80;99.90;;;;;;5095391;28;20555;-58
2023/07/05 02:44:31;;;;;;;9.93;8.97;;;14.70;99.90;;;;;;5094561;28;20270;-59
2023/07/05 02:46:56;;;;;;;9.70;8.33;;;14.70;99.90;;;;;;5093655;28;20275;-58
2023/07/05 02:49:22;;;;;;;8.70;7.93;;;14.80;99.90;;;;;;5094554;28;20176;-59
2023/07/05 02:51:48;;;;;;;8.80;8.00;;;14.80;99.90;;;;;;5093650;28;20168;-60
2023/07/05 02:54:13;;;;;;;9.43;8.53;;;14.80;99.90;;;;;;5093250;28;20175;-59
2023/07/05 02:56:39;;;;;;;12.63;8.90;;;14.70;99.90;;;;;;5093383;28;20567;-59
2023/07/05 02:59:05;;;;;;;12.07;9.23;;;14.80;99.90;;;;;;5093416;28;20174;-57
2023/07/05 03:01:30;;;;;;;10.27;9.30;;;14.70;99.90;;;;;;5094207;28;20604;-57
2023/07/05 03:03:56;;;;;;;10.23;9.33;;;14.70;99.90;;;;;;5094555;28;20636;-57
2023/07/05 03:06:22;;;;;;;8.50;7.87;;;14.80;99.90;;;;;;5095550;28;20171;-57
2023/07/05 03:08:47;;;;;;;9.07;8.17;;;14.80;99.90;;;;;;5095663;28;20172;-56
2023/07/05 03:14:35;;;;;;;10.17;7.10;;;14.80;99.90;;;;;;5095307;28;20175;-59
2023/07/05 03:17:00;;;;;;;9.27;8.13;;;14.80;99.90;;;;;;5093699;28;20207;-57
2023/07/05 03:19:26;;;;;;;8.30;7.67;;;14.80;99.90;;;;;;5093432;28;20161;-59
2023/07/05 03:21:51;;;;;;;12.50;8.53;;;14.80;99.90;;;;;;5094341;28;20168;-57
2023/07/05 03:24:17;;;;;;;12.83;8.60;;;14.80;99.90;;;;;;5095402;28;20168;-59
2023/07/05 03:26:42;;;;;;;11.17;7.73;;;14.80;99.90;;;;;;5094919;28;20186;-57
2023/07/05 03:29:08;;;;;;;9.57;6.93;;;14.80;99.90;;;;;;5094668;28;20168;-58
2023/07/05 03:31:33;;;;;;;7.67;6.03;;;14.70;99.90;;;;;;5093697;28;20220;-58
2023/07/05 03:33:59;;;;;;;13.33;8.00;;;14.80;99.90;;;;;;5093451;28;20463;-58
2023/07/05 03:36:25;;;;;;;9.73;5.87;;;14.80;99.90;;;;;;5093188;28;20245;-57
2023/07/05 03:38:51;;;;;;;6.63;6.07;;;14.80;99.90;;;;;;5090284;28;20182;-53
2023/07/05 03:41:22;;;;;;;8.23;7.03;;;14.80;99.90;;;;;;5090688;28;20179;-59
2023/07/05 03:43:54;;;;;;;8.57;7.40;;;14.80;99.90;;;;;;5096485;28;20164;-59
2023/07/05 03:46:20;;;;;;;9.33;6.67;;;14.80;99.90;;;;;;5097336;28;20172;-58
2023/07/05 03:48:46;;;;;;;7.67;7.00;;;14.80;99.90;;;;;;5096803;28;20462;-57
2023/07/05 03:51:17;;;;;;;7.97;7.10;;;14.90;99.90;;;;;;5097700;28;20198;-58
2023/07/05 03:53:43;;;;;;;8.27;7.43;;;14.80;99.90;;;;;;5097186;28;20237;-58
2023/07/05 03:56:10;;;;;;;7.53;6.83;;;14.80;99.90;;;;;;5097901;28;20160;-59
2023/07/05 03:58:36;;;;;;;7.40;6.70;;;14.80;99.90;;;;;;5097774;28;20164;-58
2023/07/05 04:01:04;;;;;;;9.67;7.07;;;14.80;99.90;;;;;;5097381;28;20230;-57
2023/07/05 04:03:32;;;;;;;7.47;6.63;;;14.80;99.90;;;;;;5097117;28;20175;-56
2023/07/05 04:05:57;;;;;;;8.43;6.83;;;14.80;99.90;;;;;;5097236;28;20552;-58
2023/07/05 04:08:23;;;;;;;7.17;6.47;;;14.80;99.90;;;;;;5094832;28;20298;-55
2023/07/05 04:10:49;;;;;;;7.43;6.67;;;14.90;99.90;;;;;;5094748;28;20168;-58
2023/07/05 04:13:15;;;;;;;11.80;7.30;;;14.80;99.90;;;;;;5092662;28;20168;-53
2023/07/05 04:15:40;;;;;;;8.53;7.73;;;14.80;99.90;;;;;;5092923;28;20249;-56
2023/07/05 04:18:06;;;;;;;9.40;8.47;;;14.90;99.90;;;;;;5093734;28;20244;-56
2023/07/05 04:20:32;;;;;;;9.07;7.90;;;14.80;99.90;;;;;;5093011;28;20168;-59
2023/07/05 04:23:01;;;;;;;11.47;9.67;;;14.80;99.90;;;;;;5092933;28;20450;-54
2023/07/05 04:25:27;;;;;;;9.73;8.73;;;14.80;99.90;;;;;;5094104;28;20214;-59
2023/07/05 04:27:52;;;;;;;10.07;8.87;;;14.80;99.90;;;;;;5096776;28;20207;-57
2023/07/05 04:30:18;;;;;;;10.57;9.03;;;14.80;99.90;;;;;;5096876;28;20180;-55
2023/07/05 04:32:43;;;;;;;9.73;9.03;;;14.80;99.90;;;;;;5097045;28;20311;-58
2023/07/05 04:35:10;;;;;;;11.23;10.23;;;14.90;99.90;;;;;;5097775;28;20173;-55
2023/07/05 04:37:36;;;;;;;10.30;9.40;;;14.90;99.90;;;;;;5095127;28;20208;-58
2023/07/05 04:40:02;;;;;;;13.60;10.70;;;14.90;99.90;;;;;;5096241;28;20225;-60
2023/07/05 04:42:27;;;;;;;9.50;8.67;;;14.80;99.90;;;;;;5096057;28;20769;-57
2023/07/05 04:44:53;;;;;;;10.37;8.93;;;14.80;99.90;;;;;;5095232;28;20175;-59
2023/07/05 04:47:19;;;;;;;10.80;9.73;;;14.80;99.90;;;;;;5095672;28;20176;-55
2023/07/05 04:49:46;;;;;;;10.93;9.93;;;14.80;99.90;;;;;;5094855;28;20231;-57
2023/07/05 04:52:12;;;;;;;12.73;11.53;;;14.80;99.90;;;;;;5091823;28;20606;-60
2023/07/05 04:54:38;;;;;;;13.33;11.73;;;14.80;99.90;;;;;;5092251;28;20168;-59
2023/07/05 04:57:04;;;;;;;17.57;10.17;;;14.80;99.90;;;;;;5093865;28;20200;-58
2023/07/05 04:59:30;;;;;;;11.17;9.97;;;14.80;99.90;;;;;;5094652;28;20263;-55
2023/07/05 05:01:55;;;;;;;13.40;10.00;;;14.80;99.90;;;;;;5093787;28;20251;-57
2023/07/05 05:04:21;;;;;;;10.57;9.57;;;14.80;99.90;;;;;;5093501;28;20188;-58
2023/07/05 05:06:47;;;;;;;11.03;9.97;;;14.80;99.90;;;;;;5092211;28;20328;-58
2023/07/05 05:09:13;;;;;;;11.03;9.90;;;14.80;99.90;;;;;;5094259;28;20536;-58
2023/07/05 05:11:38;;;;;;;12.33;10.90;;;14.80;99.90;;;;;;5092983;28;20221;-58
2023/07/05 05:14:04;;;;;;;12.70;11.73;;;14.80;99.90;;;;;;5093629;28;20176;-58
2023/07/05 05:16:29;;;;;;;13.03;11.70;;;14.80;99.90;;;;;;5093373;28;20647;-59
2023/07/05 05:18:55;;;;;;;12.87;11.53;;;14.80;99.90;;;;;;5092713;28;20315;-59
2023/07/05 05:21:20;;;;;;;15.90;14.50;;;14.80;99.90;;;;;;5092465;28;20233;-59
2023/07/05 05:23:46;;;;;;;14.37;12.93;;;14.80;99.90;;;;;;5090207;28;20167;-59
2023/07/05 05:26:12;;;;;;;14.37;13.17;;;14.80;99.90;;;;;;5092558;28;20160;-59
2023/07/05 05:28:37;;;;;;;16.37;14.73;;;14.80;99.90;;;;;;5093532;28;20289;-59
2023/07/05 05:31:07;;;;;;;16.00;14.43;;;14.80;99.90;;;;;;5094496;28;20156;-56
2023/07/05 05:33:33;;;;;;;14.67;13.57;;;14.80;99.90;;;;;;5094727;28;20379;-59
2023/07/05 05:35:58;;;;;;;16.93;15.07;;;14.80;99.90;;;;;;5093308;28;20404;-55
2023/07/05 05:38:24;;;;;;;15.87;13.57;;;14.70;99.90;;;;;;5095060;28;20224;-59
2023/07/05 05:40:51;;;;;;;13.07;11.70;;;14.80;99.90;;;;;;5091652;28;20160;-59
2023/07/05 05:43:17;;;;;;;14.77;13.20;;;14.80;99.90;;;;;;5089973;28;20179;-54
2023/07/05 05:45:43;;;;;;;12.53;11.57;;;14.80;99.90;;;;;;5089366;28;20175;-58
2023/07/05 05:48:09;;;;;;;11.13;10.13;;;14.70;99.90;;;;;;5089043;28;20469;-58
2023/07/05 05:50:35;;;;;;;11.17;9.80;;;14.70;99.90;;;;;;5086749;28;20225;-57
2023/07/05 05:53:01;;;;;;;9.10;8.20;;;14.70;99.90;;;;;;5086242;28;20375;-58
2023/07/05 05:55:26;;;;;;;12.40;9.47;;;14.80;99.90;;;;;;5085467;28;20168;-56
2023/07/05 05:57:52;;;;;;;10.27;8.23;;;14.70;99.90;;;;;;5086889;28;20353;-56
2023/07/05 06:00:18;;;;;;;11.17;7.77;;;14.70;99.90;;;;;;5085044;28;20168;-57
2023/07/05 06:02:43;;;;;;;13.67;8.33;;;14.70;99.90;;;;;;5087080;28;20179;-56
2023/07/05 06:05:10;;;;;;;14.70;8.00;;;14.70;99.90;;;;;;5087134;28;20168;-56
2023/07/05 06:07:36;;;;;;;10.83;7.80;;;14.70;99.90;;;;;;5088135;28;20544;-57
2023/07/05 06:10:02;;;;;;;10.03;7.50;;;14.70;99.90;;;;;;5087078;28;20179;-59
2023/07/05 06:12:28;;;;;;;15.43;7.00;;;14.80;99.90;;;;;;5085539;28;20187;-57
2023/07/05 06:14:53;;;;;;;10.47;7.07;;;14.80;99.90;;;;;;5086391;28;20222;-57
2023/07/05 06:17:19;;;;;;;13.50;8.83;;;14.70;99.90;;;;;;5085501;28;20196;-56
2023/07/05 06:19:45;;;;;;;11.53;8.00;;;14.70;99.90;;;;;;5085559;28;20202;-57
2023/07/05 06:22:10;;;;;;;7.80;6.90;;;14.70;99.90;;;;;;5084086;28;20164;-56
2023/07/05 06:24:41;;;;;;;8.90;7.03;;;14.70;99.90;;;;;;5084667;28;20168;-58
2023/07/05 06:27:06;;;;;;;11.40;7.63;;;14.70;99.90;;;;;;5085168;28;20168;-57
2023/07/05 06:29:32;;;;;;;10.97;7.37;;;14.70;99.90;;;;;;5084543;28;20254;-57
2023/07/05 06:31:57;;;;;;;12.00;8.00;;;14.70;99.90;;;;;;5084336;28;20231;-56
2023/07/05 06:34:24;;;;;;;11.93;7.20;;;14.70;99.90;;;;;;5086788;28;20187;-55
2023/07/05 06:36:50;;;;;;;9.00;7.40;;;14.70;99.90;;;;;;5085695;28;20380;-55
2023/07/05 06:39:15;;;;;;;13.03;8.33;;;14.70;99.90;;;;;;5086913;28;20240;-57
2023/07/05 06:41:41;;;;;;;10.07;7.83;;;14.70;99.90;;;;;;5088830;28;20203;-59
2023/07/05 06:44:07;;;;;;;12.83;7.97;;;14.80;99.90;;;;;;5088821;28;20168;-57
2023/07/05 06:46:32;;;;;;;16.47;9.77;;;14.70;99.90;;;;;;5089218;28;20168;-56
2023/07/05 06:48:58;;;;;;;10.53;8.03;;;14.80;99.90;;;;;;5087706;28;20172;-57
2023/07/05 06:51:24;;;;;;;11.07;7.60;;;14.80;99.90;;;;;;5087596;28;20164;-55
2023/07/05 06:53:50;;;;;;;8.83;7.47;;;14.70;99.90;;;;;;5084252;28;20520;-58
2023/07/05 06:56:17;;;;;;;11.00;7.27;;;14.80;99.90;;;;;;5084713;28;20678;-56
2023/07/05 06:58:43;;;;;;;12.10;8.87;;;14.70;99.90;;;;;;5082869;28;20164;-57
2023/07/05 07:01:08;;;;;;;12.83;9.30;;;14.70;99.90;;;;;;5083732;28;20221;-58
2023/07/05 07:03:34;;;;;;;14.63;9.27;;;14.70;99.90;;;;;;5084497;28;20446;-58
2023/07/05 07:06:00;;;;;;;11.57;8.80;;;14.70;99.90;;;;;;5084680;28;20436;-57
2023/07/05 07:08:33;;;;;;;11.13;8.27;;;14.60;99.90;;;;;;5086491;28;20271;-56
2023/07/05 07:11:00;;;;;;;14.13;8.77;;;14.60;99.90;;;;;;5087587;28;20195;-59
2023/07/05 07:13:27;;;;;;;10.00;8.03;;;14.60;99.90;;;;;;5084858;28;20164;-57
2023/07/05 07:16:01;;;;;;;7.50;6.47;;;14.60;99.90;;;;;;5086489;28;20694;-54
2023/07/05 07:18:27;;;;;;;9.63;8.30;;;14.60;99.90;;;;;;5087523;28;20238;-59
2023/07/05 07:20:56;;;;;;;10.80;8.03;;;14.60;99.90;;;;;;5087576;28;20508;-55
2023/07/05 07:23:22;;;;;;;10.20;7.67;;;14.50;99.90;;;;;;5089225;28;20632;-57
2023/07/05 07:25:57;;;;;;;10.20;8.37;;;14.50;99.90;;;;;;5094784;28;20164;-58
2023/07/05 07:28:22;;;;;;;11.47;8.60;;;14.50;99.90;;;;;;5095918;28;20241;-56
2023/07/05 07:30:48;;;;;;;12.27;8.27;;;14.50;99.90;;;;;;5095887;28;20179;-59
2023/07/05 07:33:14;;;;;;;11.40;8.70;;;14.60;99.90;;;;;;5090260;28;20228;-59
2023/07/05 07:35:39;;;;;;;11.93;8.10;;;14.60;99.90;;;;;;5087922;28;20742;-57
2023/07/05 07:38:05;;;;;;;11.10;7.70;;;14.60;99.90;;;;;;5086041;28;20200;-56
2023/07/05 07:40:38;;;;;;;11.20;7.80;;;14.70;99.90;;;;;;5086609;28;20168;-56
2023/07/05 07:43:06;;;;;;;13.83;8.53;;;14.60;99.90;;;;;;5088266;28;20427;-58
2023/07/05 07:45:32;;;;;;;11.70;8.03;;;14.70;99.90;;;;;;5086807;28;20590;-58
2023/07/05 07:47:58;;;;;;;11.67;7.47;;;14.70;99.90;;;;;;5088193;28;20172;-59
2023/07/05 07:50:23;;;;;;;11.80;7.77;;;14.70;99.90;;;;;;5088192;28;20659;-59
2023/07/05 07:52:49;;;;;;;12.17;7.80;;;14.80;99.90;;;;;;5087716;28;20255;-56
2023/07/05 07:55:14;;;;;;;12.60;8.33;;;14.70;99.90;;;;;;5087827;28;20176;-58
2023/07/05 07:57:41;;;;;;;8.23;7.43;;;14.80;99.90;;;;;;5086651;28;20277;-57
2023/07/05 08:00:09;;;;;;;10.67;7.90;;;14.80;99.90;;;;;;5087919;28;20583;-57
2023/07/05 08:02:38;;;;;;;10.20;8.40;;;14.90;99.90;;;;;;5088247;28;20164;-59
2023/07/05 08:05:13;;;;;;;11.27;8.37;;;14.90;99.90;;;;;;5089460;28;20164;-58
2023/07/05 08:07:38;;;;;;;13.23;8.83;;;14.90;99.90;;;;;;5087803;28;20414;-56
2023/07/05 08:10:04;;;;;;;9.83;7.60;;;14.90;99.90;;;;;;5087739;28;20179;-56
2023/07/05 08:12:30;;;;;;;7.83;7.10;;;14.90;99.90;;;;;;5089781;28;20513;-58
2023/07/05 08:14:56;;;;;;;11.40;7.53;;;15.00;99.90;;;;;;5090339;28;20170;-55
2023/07/05 08:17:22;;;;;;;11.57;8.67;;;15.00;99.90;;;;;;5089155;28;20204;-57
2023/07/05 08:19:47;;;;;;;12.47;8.40;;;15.00;99.90;;;;;;5088420;28;20171;-58
2023/07/05 08:22:13;;;;;;;10.07;8.53;;;15.00;99.90;;;;;;5090106;28;20214;-56
2023/07/05 08:24:38;;;;;;;11.07;8.47;;;15.00;99.90;;;;;;5095316;28;20164;-59
2023/07/05 08:27:05;;;;;;;9.60;7.83;;;15.00;99.90;;;;;;5094603;28;20226;-58
2023/07/05 08:29:30;;;;;;;9.27;7.40;;;15.10;99.90;;;;;;5094741;28;20175;-58
2023/07/05 08:31:57;;;;;;;10.20;7.90;;;15.10;99.90;;;;;;5094693;28;20231;-59
2023/07/05 08:34:22;;;;;;;9.50;8.50;;;15.20;99.90;;;;;;5095225;28;20171;-58
2023/07/05 08:36:48;;;;;;;12.47;9.27;;;15.20;99.90;;;;;;5095058;28;20203;-56
2023/07/05 08:39:14;;;;;;;14.13;9.13;;;15.30;99.90;;;;;;5095479;28;20153;-58
2023/07/05 08:41:44;;;;;;;10.30;8.83;;;15.40;99.90;;;;;;5095002;28;20179;-59
2023/07/05 08:44:30;;;;;;;12.43;9.07;;;15.50;99.90;;;;;;5096521;28;20260;-56
2023/07/05 08:47:15;;;;;;;12.83;8.60;;;15.50;99.90;;;;;;5097139;28;20168;-56
2023/07/05 08:49:47;;;;;;;14.13;9.03;;;15.60;99.90;;;;;;5096243;28;20595;-57
2023/07/05 08:52:30;;;;;;;13.13;10.30;;;15.70;99.90;;;;;;5095146;28;20168;-58
2023/07/05 08:54:59;;;;;;;11.73;10.50;;;15.70;99.90;;;;;;5094475;28;20237;-59
2023/07/05 08:57:53;;;;;;;15.50;13.87;;;15.80;99.90;;;;;;5094469;28;20195;-59
2023/07/05 09:00:29;;;;;;;11.70;10.50;;;15.90;99.90;;;;;;5090530;28;20616;-57
2023/07/05 09:02:55;;;;;;;10.27;9.27;;;15.90;99.90;;;;;;5089921;28;20474;-58
2023/07/05 09:05:33;;;;;;;10.93;9.47;;;15.90;99.90;;;;;;5088375;28;20442;-59
2023/07/05 09:08:48;;;;;;;9.07;8.23;;;16.00;99.90;;;;;;5090378;28;20321;-57
2023/07/05 09:11:18;;;;;;;10.10;9.03;;;16.10;99.90;;;;;;5044803;28;20207;-57
2023/07/05 09:13:44;;;;;;;10.07;8.93;;;16.20;99.90;;;;;;5089964;28;20548;-57
2023/07/05 09:16:29;;;;;;;9.03;7.63;;;16.30;99.90;;;;;;5092482;28;20225;-54
2023/07/05 09:19:11;;;;;;;8.27;7.37;;;16.30;99.90;;;;;;5091419;28;20183;-58
2023/07/05 09:21:53;;;;;;;8.20;5.87;;;16.40;99.90;;;;;;5090443;28;20164;-57
2023/07/05 09:24:24;;;;;;;9.07;5.93;;;16.40;99.90;;;;;;5090668;28;20160;-58
2023/07/05 09:26:57;;;;;;;6.83;6.13;;;16.50;99.90;;;;;;5091434;28;20175;-53
2023/07/05 09:29:43;;;;;;;5.97;5.03;;;16.50;99.90;;;;;;5089162;28;20468;-56
2023/07/05 09:32:12;;;;;;;4.90;4.10;;;16.40;99.90;;;;;;5086956;28;20535;-65
2023/07/05 09:34:43;;;;;;;4.43;4.03;;;16.50;99.90;;;;;;5086729;28;20176;-58
2023/07/05 09:37:22;;;;;;;5.90;4.90;;;16.50;99.90;;;;;;5088348;28;20228;-57
2023/07/05 09:40:12;;;;;;;4.73;4.30;;;16.50;99.90;;;;;;5084911;28;20269;-56
2023/07/05 09:43:11;;;;;;;4.30;4.00;;;16.50;99.90;;;;;;5086140;28;20387;-58
2023/07/05 09:45:36;;;;;;;5.80;5.30;;;16.60;99.90;;;;;;5085398;28;20194;-58
2023/07/05 09:48:05;;;;;;;4.03;3.30;;;16.60;99.90;;;;;;5087240;28;20476;-54
2023/07/05 09:50:31;;;;;;;3.93;3.47;;;16.70;99.90;;;;;;5088625;28;20168;-57
2023/07/05 09:53:01;;;;;;;4.43;2.93;;;16.80;99.90;;;;;;5089753;28;20259;-57
2023/07/05 09:55:26;;;;;;;4.67;2.90;;;16.90;99.90;;;;;;5091370;28;20168;-58
2023/07/05 09:57:52;;;;;;;4.20;3.50;;;17.00;99.90;;;;;;5089579;28;20192;-58
2023/07/05 10:00:36;;;;;;;4.57;4.17;;;17.00;99.90;;;;;;5091070;28;20346;-56
2023/07/05 10:03:14;;;;;;;16.70;15.60;;;17.00;99.90;;;;;;5091785;28;20179;-59
2023/07/05 10:05:52;;;;;;;4.70;3.60;;;17.20;99.90;;;;;;5089304;28;20464;-56
2023/07/05 10:08:21;;;;;;;50.93;48.03;;;17.30;99.90;;;;;;5089836;28;20657;-59
2023/07/05 10:10:48;;;;;;;48.07;45.43;;;17.40;99.90;;;;;;5089320;28;20199;-56
2023/07/05 10:13:20;;;;;;;46.73;44.20;;;17.30;99.90;;;;;;5090019;28;20195;-54
2023/07/05 10:15:49;;;;;;;38.20;36.30;;;17.30;99.90;;;;;;5091213;28;20267;-55
2023/07/05 10:18:35;;;;;;;4.23;3.83;;;17.20;99.90;;;;;;5090753;28;20610;-58
2023/07/05 10:21:03;;;;;;;38.00;35.97;;;17.10;99.90;;;;;;5089683;28;20196;-53
2023/07/05 10:23:32;;;;;;;42.00;39.87;;;17.10;99.90;;;;;;5089426;28;20164;-56
2023/07/05 10:26:02;;;;;;;42.53;40.17;;;17.20;99.90;;;;;;5090339;28;20175;-58
2023/07/05 10:28:30;;;;;;;36.97;35.03;;;17.30;99.90;;;;;;5088864;28;20168;-55
2023/07/05 10:31:00;;;;;;;41.10;39.07;;;17.40;99.90;;;;;;5089555;28;20215;-56
2023/07/05 10:33:31;;;;;;;45.63;43.33;;;17.50;99.90;;;;;;5089704;28;20245;-56
2023/07/05 10:36:08;;;;;;;6.83;5.47;;;17.60;99.90;;;;;;5088434;28;20168;-58
2023/07/05 10:38:47;;;;;;;57.37;54.40;;;17.70;99.90;;;;;;5088882;28;20215;-58
2023/07/05 10:41:19;;;;;;;4.67;2.93;;;17.80;99.90;;;;;;5088371;28;20222;-56
2023/07/05 10:44:05;;;;;;;61.77;58.77;;;17.80;99.90;;;;;;5088246;28;20171;-57
2023/07/05 10:46:34;;;;;;;78.77;74.87;;;17.80;99.90;;;;;;5088457;28;20167;-59
2023/07/05 10:49:04;;;;;;;2.93;2.40;;;17.80;99.90;;;;;;5090801;28;20160;-56
2023/07/05 10:51:35;;;;;;;64.97;61.77;;;17.70;99.90;;;;;;5089791;28;20160;-56
2023/07/05 10:54:08;;;;;;;10.27;4.97;;;17.80;99.90;;;;;;5089095;28;20171;-59
2023/07/05 10:56:37;;;;;;;90.30;86.00;;;17.80;99.90;;;;;;5090980;28;20628;-57
2023/07/05 10:59:13;;;;;;;125.87;119.47;;;17.80;99.90;;;;;;5093434;28;20171;-56
2023/07/05 11:01:54;;;;;;;124.37;117.17;;;17.80;99.90;;;;;;5094661;28;20210;-59
2023/07/05 11:04:24;;;;;;;4.83;3.00;;;17.80;99.90;;;;;;5092810;28;20168;-58
2023/07/05 11:06:52;;;;;;;64.93;61.30;;;17.80;99.90;;;;;;5093628;28;20168;-57
2023/07/05 11:09:18;;;;;;;29.30;27.60;;;17.80;99.90;;;;;;5093593;28;20168;-57
2023/07/05 11:11:58;;;;;;;17.30;16.17;;;17.80;99.90;;;;;;5092391;28;20179;-58
2023/07/05 11:14:28;;;;;;;14.47;13.27;;;17.80;99.90;;;;;;5094520;28;20267;-57
2023/07/05 11:16:55;;;;;;;4.43;4.13;;;17.80;99.90;;;;;;5093623;28;20203;-59
2023/07/05 11:19:26;;;;;;;5.30;2.70;;;17.80;99.90;;;;;;5093459;28;20232;-56
2023/07/05 11:21:52;;;;;;;3.73;3.20;;;17.80;99.90;;;;;;5094898;28;20169;-57
2023/07/05 11:24:30;;;;;;;4.83;1.93;;;17.90;99.90;;;;;;5091929;28;20672;-54
2023/07/05 11:26:56;;;;;;;8.00;1.80;;;17.90;99.90;;;;;;5090227;28;20179;-58
2023/07/05 11:29:27;;;;;;;3.50;1.80;;;18.00;99.90;;;;;;5090278;28;20211;-58
2023/07/05 11:31:53;;;;;;;3.13;1.47;;;18.00;99.90;;;;;;5089231;28;20287;-56
2023/07/05 11:34:21;;;;;;;4.37;1.60;;;17.90;99.90;;;;;;5090953;28;20169;-59
2023/07/05 11:36:52;;;;;;;3.73;1.70;;;18.00;99.90;;;;;;5089620;28;20256;-56
2023/07/05 11:39:40;;;;;;;12.83;1.80;;;18.10;99.90;;;;;;5090334;28;20164;-58
2023/07/05 11:42:15;;;;;;;4.60;1.90;;;18.10;99.90;;;;;;5089007;28;20175;-58
2023/07/05 11:44:41;;;;;;;2.90;1.80;;;18.10;99.90;;;;;;5089770;28;20258;-56
2023/07/05 11:47:10;;;;;;;2.07;1.80;;;18.30;99.90;;;;;;5091122;28;20175;-54
2023/07/05 11:49:40;;;;;;;5.70;2.70;;;18.40;99.90;;;;;;5090876;28;20292;-54
2023/07/05 11:52:25;;;;;;;6.13;3.37;;;18.20;99.90;;;;;;5091153;28;20180;-53
2023/07/05 11:55:03;;;;;;;2.60;1.50;;;18.10;99.90;;;;;;5090921;28;20629;-55
2023/07/05 11:57:33;;;;;;;4.97;1.47;;;18.00;99.90;;;;;;5091931;28;20257;-51
2023/07/05 12:00:12;;;;;;;5.40;1.40;;;17.90;99.90;;;;;;5091764;28;20206;-54
2023/07/05 12:02:59;;;;;;;3.47;1.63;;;17.90;99.90;;;;;;5092550;28;20263;-52
2023/07/05 12:05:28;;;;;;;4.03;1.60;;;17.80;99.90;;;;;;5095072;28;20206;-55
2023/07/05 12:08:07;;;;;;;4.77;1.43;;;17.80;99.90;;;;;;5095213;28;20182;-52
2023/07/05 12:10:35;;;;;;;28.07;10.77;;;17.90;99.90;;;;;;5097555;28;20167;-54
2023/07/05 12:13:02;;;;;;;5.50;1.50;;;18.10;99.90;;;;;;5097626;28;20184;-52
2023/07/05 12:15:29;;;;;;;2.43;2.23;;;18.30;99.90;;;;;;5097923;28;20183;-49
2023/07/05 12:17:55;;;;;;;5.63;1.60;;;18.30;99.90;;;;;;5094912;28;20188;-54
2023/07/05 12:20:30;;;;;;;7.90;3.40;;;18.40;99.90;;;;;;5093407;28;20183;-52
2023/07/05 12:22:57;;;;;;;4.70;3.27;;;18.40;99.90;;;;;;5093126;28;20254;-52
2023/07/05 12:25:24;;;;;;;5.77;1.33;;;18.30;99.90;;;;;;5093685;28;20176;-51
2023/07/05 12:27:51;;;;;;;1.70;1.40;;;18.20;99.90;;;;;;5093333;28;20168;-54
2023/07/05 12:30:19;;;;;;;4.50;1.50;;;18.10;99.90;;;;;;5093619;28;20821;-53
2023/07/05 12:32:50;;;;;;;3.23;1.83;;;18.10;99.90;;;;;;5094888;28;20228;-56
2023/07/05 12:35:20;;;;;;;1.60;1.50;;;18.10;99.90;;;;;;5095476;28;20164;-55
2023/07/05 12:37:47;;;;;;;5.20;1.50;;;18.10;99.90;;;;;;5096393;28;20188;-54
2023/07/05 12:40:29;;;;;;;6.50;1.63;;;18.10;99.90;;;;;;5094212;28;20448;-55
2023/07/05 12:43:04;;;;;;;1.97;1.43;;;18.10;99.90;;;;;;5094725;28;20167;-54
2023/07/05 12:45:31;;;;;;;4.63;1.67;;;18.20;99.90;;;;;;5094097;28;20454;-52
2023/07/05 12:48:11;;;;;;;4.13;1.60;;;18.20;99.90;;;;;;5091861;28;20268;-56
2023/07/05 12:50:37;;;;;;;2.43;1.53;;;18.20;99.90;;;;;;5093420;28;20676;-56
2023/07/05 12:53:06;;;;;;;2.33;1.73;;;18.20;99.90;;;;;;5092678;28;20183;-52
2023/07/05 12:55:34;;;;;;;6.57;1.97;;;18.10;99.90;;;;;;5094437;28;20229;-54